sensor_id;sensor_type;location;lat;lon;timestamp;pressure;altitude;pressure_sealevel;temperature;humidity
22000;BME280;11164;48.818;2.322;2023-01-23T00:00:01;102264.84;;;2.64;48.31
22000;BME280;11164;48.818;2.322;2023-01-23T00:02:29;102270.56;;;2.45;48.63
22000;BME280;11164;48.818;2.322;2023-01-23T00:04:54;102265.78;;;2.63;47.90
22000;BME280;11164;48.818;2.322;2023-01-23T00:07:20;102272.00;;;2.63;48.35
22000;BME280;11164;48.818;2.322;2023-01-23T00:09:45;102272.94;;;2.62;48.45
22000;BME280;11164;48.818;2.322;2023-01-23T00:12:10;102265.06;;;2.48;48.56
22000;BME280;11164;48.818;2.322;2023-01-23T00:14:36;102273.13;;;2.59;48.89
22000;BME280;11164;48.818;2.322;2023-01-23T00:17:01;102272.69;;;2.39;48.78
22000;BME280;11164;48.818;2.322;2023-01-23T00:19:26;102270.22;;;2.36;48.18
22000;BME280;11164;48.818;2.322;2023-01-23T00:21:52;102267.38;;;2.39;48.92
22000;BME280;11164;48.818;2.322;2023-01-23T00:24:17;102272.25;;;2.33;48.69
22000;BME280;11164;48.818;2.322;2023-01-23T00:26:43;102272.06;;;2.36;48.72
22000;BME280;11164;48.818;2.322;2023-01-23T00:29:08;102277.19;;;2.52;48.19
22000;BME280;11164;48.818;2.322;2023-01-23T00:31:35;102271.41;;;2.45;48.70
22000;BME280;11164;48.818;2.322;2023-01-23T00:34:05;102262.34;;;2.35;48.87
22000;BME280;11164;48.818;2.322;2023-01-23T00:36:37;102267.47;;;2.38;49.14
22000;BME280;11164;48.818;2.322;2023-01-23T00:39:05;102277.38;;;2.49;48.29
22000;BME280;11164;48.818;2.322;2023-01-23T00:41:31;102275.91;;;2.57;48.12
22000;BME280;11164;48.818;2.322;2023-01-23T00:43:56;102292.44;;;2.22;49.16
22000;BME280;11164;48.818;2.322;2023-01-23T00:46:22;102278.78;;;2.14;49.19
22000;BME280;11164;48.818;2.322;2023-01-23T00:48:47;102278.94;;;2.26;49.10
22000;BME280;11164;48.818;2.322;2023-01-23T00:51:14;102280.38;;;2.44;49.01
22000;BME280;11164;48.818;2.322;2023-01-23T00:53:39;102281.13;;;2.46;48.98
22000;BME280;11164;48.818;2.322;2023-01-23T00:56:05;102280.94;;;2.49;48.07
22000;BME280;11164;48.818;2.322;2023-01-23T00:58:31;102278.66;;;2.56;48.38
22000;BME280;11164;48.818;2.322;2023-01-23T01:00:56;102277.28;;;2.50;48.80
22000;BME280;11164;48.818;2.322;2023-01-23T01:03:22;102278.13;;;2.51;48.44
22000;BME280;11164;48.818;2.322;2023-01-23T01:05:49;102278.81;;;2.67;48.78
22000;BME280;11164;48.818;2.322;2023-01-23T01:08:15;102273.03;;;2.60;48.39
22000;BME280;11164;48.818;2.322;2023-01-23T01:10:41;102276.09;;;2.54;48.65
22000;BME280;11164;48.818;2.322;2023-01-23T01:13:07;102281.47;;;2.67;48.52
22000;BME280;11164;48.818;2.322;2023-01-23T01:15:33;102280.38;;;2.57;48.74
22000;BME280;11164;48.818;2.322;2023-01-23T01:17:59;102264.22;;;2.60;48.53
22000;BME280;11164;48.818;2.322;2023-01-23T01:20:26;102277.97;;;2.79;48.16
22000;BME280;11164;48.818;2.322;2023-01-23T01:22:53;102266.88;;;2.60;48.38
22000;BME280;11164;48.818;2.322;2023-01-23T01:25:19;102268.66;;;2.59;48.90
22000;BME280;11164;48.818;2.322;2023-01-23T01:27:44;102263.66;;;2.55;48.20
22000;BME280;11164;48.818;2.322;2023-01-23T01:30:10;102268.75;;;2.45;48.68
22000;BME280;11164;48.818;2.322;2023-01-23T01:32:39;102269.28;;;2.37;49.41
22000;BME280;11164;48.818;2.322;2023-01-23T01:35:06;102275.25;;;2.41;48.99
22000;BME280;11164;48.818;2.322;2023-01-23T01:37:33;102261.84;;;2.43;48.99
22000;BME280;11164;48.818;2.322;2023-01-23T01:39:59;102258.06;;;2.19;49.37
22000;BME280;11164;48.818;2.322;2023-01-23T01:42:25;102261.34;;;2.23;49.14
22000;BME280;11164;48.818;2.322;2023-01-23T01:45:00;102262.16;;;2.38;49.77
22000;BME280;11164;48.818;2.322;2023-01-23T01:47:26;102261.59;;;2.33;49.32
22000;BME280;11164;48.818;2.322;2023-01-23T01:49:56;102253.88;;;2.55;48.66
22000;BME280;11164;48.818;2.322;2023-01-23T01:52:24;102256.81;;;2.38;49.06
22000;BME280;11164;48.818;2.322;2023-01-23T01:54:57;102248.44;;;2.44;49.05
22000;BME280;11164;48.818;2.322;2023-01-23T01:57:29;102248.75;;;2.52;49.09
22000;BME280;11164;48.818;2.322;2023-01-23T02:00:00;102252.38;;;2.64;48.55
22000;BME280;11164;48.818;2.322;2023-01-23T02:02:32;102250.00;;;2.59;49.68
22000;BME280;11164;48.818;2.322;2023-01-23T02:05:03;102253.97;;;2.79;48.70
22000;BME280;11164;48.818;2.322;2023-01-23T02:10:03;102244.34;;;2.38;49.29
22000;BME280;11164;48.818;2.322;2023-01-23T02:12:30;102252.44;;;2.24;49.48
22000;BME280;11164;48.818;2.322;2023-01-23T02:14:57;102255.88;;;2.65;48.15
22000;BME280;11164;48.818;2.322;2023-01-23T02:17:22;102248.84;;;2.76;47.98
22000;BME280;11164;48.818;2.322;2023-01-23T02:20:24;102248.09;;;2.87;48.71
22000;BME280;11164;48.818;2.322;2023-01-23T02:28:05;102242.47;;;2.92;48.49
22000;BME280;11164;48.818;2.322;2023-01-23T02:30:31;102243.00;;;2.84;48.37
22000;BME280;11164;48.818;2.322;2023-01-23T02:33:11;102239.91;;;2.77;48.53
22000;BME280;11164;48.818;2.322;2023-01-23T02:35:56;102239.91;;;2.39;49.52
22000;BME280;11164;48.818;2.322;2023-01-23T02:38:26;102240.59;;;2.28;49.62
22000;BME280;11164;48.818;2.322;2023-01-23T02:40:52;102248.69;;;2.27;49.69
22000;BME280;11164;48.818;2.322;2023-01-23T02:43:22;102242.88;;;2.47;49.17
22000;BME280;11164;48.818;2.322;2023-01-23T02:45:52;102241.19;;;2.46;49.39
22000;BME280;11164;48.818;2.322;2023-01-23T02:48:18;102251.69;;;2.35;49.32
22000;BME280;11164;48.818;2.322;2023-01-23T02:50:43;102248.59;;;2.28;49.85
22000;BME280;11164;48.818;2.322;2023-01-23T02:53:11;102252.25;;;2.40;48.92
22000;BME280;11164;48.818;2.322;2023-01-23T02:55:36;102269.72;;;2.44;48.96
22000;BME280;11164;48.818;2.322;2023-01-23T02:58:06;102270.44;;;2.33;49.46
22000;BME280;11164;48.818;2.322;2023-01-23T03:00:50;102266.53;;;2.39;49.31
22000;BME280;11164;48.818;2.322;2023-01-23T03:03:16;102271.50;;;2.31;49.94
22000;BME280;11164;48.818;2.322;2023-01-23T03:05:42;102257.09;;;2.20;50.64
22000;BME280;11164;48.818;2.322;2023-01-23T03:08:07;102268.31;;;2.26;50.22
22000;BME280;11164;48.818;2.322;2023-01-23T03:10:33;102262.78;;;2.29;49.54
22000;BME280;11164;48.818;2.322;2023-01-23T03:12:58;102255.34;;;2.34;49.47
22000;BME280;11164;48.818;2.322;2023-01-23T03:15:28;102259.28;;;2.41;49.30
22000;BME280;11164;48.818;2.322;2023-01-23T03:17:55;102257.19;;;2.72;48.81
22000;BME280;11164;48.818;2.322;2023-01-23T03:20:20;102247.25;;;2.61;48.94
22000;BME280;11164;48.818;2.322;2023-01-23T03:22:48;102248.00;;;2.37;49.62
22000;BME280;11164;48.818;2.322;2023-01-23T03:25:13;102254.19;;;2.64;49.22
22000;BME280;11164;48.818;2.322;2023-01-23T03:27:39;102256.28;;;2.46;49.67
22000;BME280;11164;48.818;2.322;2023-01-23T03:30:06;102262.78;;;2.54;48.92
22000;BME280;11164;48.818;2.322;2023-01-23T03:32:39;102254.16;;;2.51;49.58
22000;BME280;11164;48.818;2.322;2023-01-23T03:35:06;102251.44;;;2.65;48.89
22000;BME280;11164;48.818;2.322;2023-01-23T03:37:31;102249.47;;;2.54;48.89
22000;BME280;11164;48.818;2.322;2023-01-23T03:39:57;102250.84;;;2.21;50.23
22000;BME280;11164;48.818;2.322;2023-01-23T03:42:41;102256.28;;;2.33;49.38
22000;BME280;11164;48.818;2.322;2023-01-23T03:45:07;102267.47;;;2.38;49.49
22000;BME280;11164;48.818;2.322;2023-01-23T03:47:32;102253.06;;;2.28;49.60
22000;BME280;11164;48.818;2.322;2023-01-23T03:49:58;102259.09;;;2.44;49.05
22000;BME280;11164;48.818;2.322;2023-01-23T03:52:24;102251.91;;;2.32;50.08
22000;BME280;11164;48.818;2.322;2023-01-23T03:54:49;102259.50;;;2.51;49.76
22000;BME280;11164;48.818;2.322;2023-01-23T03:57:15;102262.06;;;2.52;49.08
22000;BME280;11164;48.818;2.322;2023-01-23T03:59:40;102262.94;;;2.66;49.48
22000;BME280;11164;48.818;2.322;2023-01-23T04:02:05;102255.53;;;2.44;49.99
22000;BME280;11164;48.818;2.322;2023-01-23T04:04:32;102255.09;;;2.37;49.60
22000;BME280;11164;48.818;2.322;2023-01-23T04:06:58;102257.00;;;1.95;50.85
22000;BME280;11164;48.818;2.322;2023-01-23T04:09:23;102260.81;;;2.18;50.53
22000;BME280;11164;48.818;2.322;2023-01-23T04:11:56;102246.91;;;2.40;50.07
22000;BME280;11164;48.818;2.322;2023-01-23T04:14:24;102250.97;;;2.46;49.86
22000;BME280;11164;48.818;2.322;2023-01-23T04:16:50;102250.63;;;2.25;50.28
22000;BME280;11164;48.818;2.322;2023-01-23T04:19:15;102254.28;;;2.09;50.92
22000;BME280;11164;48.818;2.322;2023-01-23T04:21:44;102250.50;;;2.13;50.57
22000;BME280;11164;48.818;2.322;2023-01-23T04:24:10;102255.09;;;2.37;49.94
22000;BME280;11164;48.818;2.322;2023-01-23T04:26:35;102255.78;;;2.53;49.40
22000;BME280;11164;48.818;2.322;2023-01-23T04:29:02;102256.84;;;2.76;48.68
22000;BME280;11164;48.818;2.322;2023-01-23T04:31:27;102268.69;;;2.72;49.20
22000;BME280;11164;48.818;2.322;2023-01-23T04:33:53;102260.13;;;2.54;49.05
22000;BME280;11164;48.818;2.322;2023-01-23T04:36:18;102267.47;;;2.38;49.61
22000;BME280;11164;48.818;2.322;2023-01-23T04:38:43;102278.03;;;2.39;50.33
22000;BME280;11164;48.818;2.322;2023-01-23T04:41:16;102275.81;;;2.59;49.49
22000;BME280;11164;48.818;2.322;2023-01-23T04:43:42;102266.34;;;2.68;49.15
22000;BME280;11164;48.818;2.322;2023-01-23T04:46:08;102264.41;;;2.57;49.20
22000;BME280;11164;48.818;2.322;2023-01-23T04:48:33;102266.97;;;2.58;49.40
22000;BME280;11164;48.818;2.322;2023-01-23T04:50:59;102265.50;;;2.67;49.13
22000;BME280;11164;48.818;2.322;2023-01-23T04:53:24;102269.16;;;2.26;50.46
22000;BME280;11164;48.818;2.322;2023-01-23T04:55:50;102268.66;;;2.59;49.23
22000;BME280;11164;48.818;2.322;2023-01-23T04:58:17;102267.63;;;2.62;49.09
22000;BME280;11164;48.818;2.322;2023-01-23T05:00:42;102266.34;;;2.55;50.02
22000;BME280;11164;48.818;2.322;2023-01-23T05:03:08;102261.94;;;2.54;49.63
22000;BME280;11164;48.818;2.322;2023-01-23T05:05:33;102273.69;;;2.77;49.19
22000;BME280;11164;48.818;2.322;2023-01-23T05:07:58;102273.38;;;2.94;48.22
22000;BME280;11164;48.818;2.322;2023-01-23T05:10:24;102273.78;;;3.01;48.22
22000;BME280;11164;48.818;2.322;2023-01-23T05:12:49;102279.53;;;2.82;49.34
22000;BME280;11164;48.818;2.322;2023-01-23T05:15:15;102274.66;;;2.63;49.24
22000;BME280;11164;48.818;2.322;2023-01-23T05:17:41;102276.66;;;2.59;49.37
22000;BME280;11164;48.818;2.322;2023-01-23T05:20:09;102275.41;;;2.65;49.59
22000;BME280;11164;48.818;2.322;2023-01-23T05:22:35;102281.78;;;2.88;49.25
22000;BME280;11164;48.818;2.322;2023-01-23T05:25:00;102282.13;;;2.96;49.35
22000;BME280;11164;48.818;2.322;2023-01-23T05:27:26;102284.44;;;3.14;48.71
22000;BME280;11164;48.818;2.322;2023-01-23T05:29:51;102290.31;;;2.68;49.81
22000;BME280;11164;48.818;2.322;2023-01-23T05:32:16;102286.25;;;2.75;49.26
22000;BME280;11164;48.818;2.322;2023-01-23T05:34:42;102294.78;;;2.80;49.32
22000;BME280;11164;48.818;2.322;2023-01-23T05:37:07;102285.38;;;2.49;50.40
22000;BME280;11164;48.818;2.322;2023-01-23T05:39:32;102302.19;;;2.36;50.75
22000;BME280;11164;48.818;2.322;2023-01-23T05:41:58;102305.38;;;2.29;50.65
22000;BME280;11164;48.818;2.322;2023-01-23T05:44:23;102305.63;;;2.11;51.09
22000;BME280;11164;48.818;2.322;2023-01-23T05:46:48;102309.63;;;2.31;50.47
22000;BME280;11164;48.818;2.322;2023-01-23T05:49:14;102304.56;;;2.14;50.93
22000;BME280;11164;48.818;2.322;2023-01-23T05:51:39;102319.88;;;2.10;51.24
22000;BME280;11164;48.818;2.322;2023-01-23T05:54:05;102320.97;;;2.20;50.49
22000;BME280;11164;48.818;2.322;2023-01-23T05:56:31;102313.28;;;2.56;50.62
22000;BME280;11164;48.818;2.322;2023-01-23T05:58:56;102303.41;;;2.71;49.45
22000;BME280;11164;48.818;2.322;2023-01-23T06:01:21;102302.25;;;2.75;49.18
22000;BME280;11164;48.818;2.322;2023-01-23T06:03:47;102312.34;;;2.17;51.35
22000;BME280;11164;48.818;2.322;2023-01-23T06:06:13;102312.66;;;2.52;49.94
22000;BME280;11164;48.818;2.322;2023-01-23T06:08:38;102309.78;;;2.68;49.81
22000;BME280;11164;48.818;2.322;2023-01-23T06:11:04;102317.91;;;2.92;49.66
22000;BME280;11164;48.818;2.322;2023-01-23T06:13:29;102321.31;;;2.82;49.46
22000;BME280;11164;48.818;2.322;2023-01-23T06:15:55;102331.72;;;2.46;50.07
22000;BME280;11164;48.818;2.322;2023-01-23T06:18:21;102330.84;;;2.46;49.78
22000;BME280;11164;48.818;2.322;2023-01-23T06:20:46;102329.72;;;2.63;49.65
22000;BME280;11164;48.818;2.322;2023-01-23T06:23:12;102328.53;;;2.27;50.32
22000;BME280;11164;48.818;2.322;2023-01-23T06:25:38;102330.53;;;2.50;50.49
22000;BME280;11164;48.818;2.322;2023-01-23T06:28:03;102335.47;;;2.56;49.60
22000;BME280;11164;48.818;2.322;2023-01-23T06:30:29;102329.63;;;2.77;49.61
22000;BME280;11164;48.818;2.322;2023-01-23T06:32:54;102338.03;;;2.71;49.67
22000;BME280;11164;48.818;2.322;2023-01-23T06:35:20;102343.06;;;2.75;49.34
22000;BME280;11164;48.818;2.322;2023-01-23T06:37:46;102336.34;;;2.83;49.35
22000;BME280;11164;48.818;2.322;2023-01-23T06:40:11;102330.50;;;2.90;49.47
22000;BME280;11164;48.818;2.322;2023-01-23T06:42:38;102342.09;;;2.76;49.06
22000;BME280;11164;48.818;2.322;2023-01-23T06:45:04;102334.34;;;2.86;49.25
22000;BME280;11164;48.818;2.322;2023-01-23T06:47:30;102338.69;;;2.74;49.89
22000;BME280;11164;48.818;2.322;2023-01-23T06:49:55;102341.69;;;2.95;49.23
22000;BME280;11164;48.818;2.322;2023-01-23T06:52:21;102335.94;;;3.02;48.77
22000;BME280;11164;48.818;2.322;2023-01-23T06:54:46;102330.38;;;3.05;48.52
22000;BME280;11164;48.818;2.322;2023-01-23T06:57:11;102323.44;;;2.64;49.95
22000;BME280;11164;48.818;2.322;2023-01-23T06:59:37;102337.84;;;2.74;49.38
22000;BME280;11164;48.818;2.322;2023-01-23T07:02:03;102332.06;;;2.80;49.54
22000;BME280;11164;48.818;2.322;2023-01-23T07:04:28;102339.66;;;2.86;49.39
22000;BME280;11164;48.818;2.322;2023-01-23T07:06:53;102338.44;;;2.52;50.04
22000;BME280;11164;48.818;2.322;2023-01-23T07:09:19;102337.84;;;2.74;50.03
22000;BME280;11164;48.818;2.322;2023-01-23T07:11:45;102335.63;;;2.81;49.16
22000;BME280;11164;48.818;2.322;2023-01-23T07:14:10;102339.16;;;2.41;50.22
22000;BME280;11164;48.818;2.322;2023-01-23T07:16:35;102338.22;;;2.55;50.04
22000;BME280;11164;48.818;2.322;2023-01-23T07:19:01;102340.56;;;2.59;49.83
22000;BME280;11164;48.818;2.322;2023-01-23T07:21:28;102331.06;;;2.43;50.04
22000;BME280;11164;48.818;2.322;2023-01-23T07:23:53;102342.09;;;2.36;50.24
22000;BME280;11164;48.818;2.322;2023-01-23T07:26:19;102324.84;;;2.29;50.43
22000;BME280;11164;48.818;2.322;2023-01-23T07:28:44;102331.16;;;2.41;50.45
22000;BME280;11164;48.818;2.322;2023-01-23T07:31:09;102336.75;;;2.64;49.46
22000;BME280;11164;48.818;2.322;2023-01-23T07:33:35;102341.34;;;2.74;49.09
22000;BME280;11164;48.818;2.322;2023-01-23T07:36:04;102342.44;;;2.72;49.54
22000;BME280;11164;48.818;2.322;2023-01-23T07:38:29;102328.75;;;2.64;49.84
22000;BME280;11164;48.818;2.322;2023-01-23T07:40:57;102346.50;;;2.37;50.53
22000;BME280;11164;48.818;2.322;2023-01-23T07:43:22;102342.00;;;2.38;50.64
22000;BME280;11164;48.818;2.322;2023-01-23T07:45:48;102346.69;;;2.34;50.59
22000;BME280;11164;48.818;2.322;2023-01-23T07:48:14;102346.06;;;2.44;50.35
22000;BME280;11164;48.818;2.322;2023-01-23T07:50:40;102345.72;;;2.75;49.51
22000;BME280;11164;48.818;2.322;2023-01-23T07:53:05;102331.75;;;2.32;50.47
22000;BME280;11164;48.818;2.322;2023-01-23T07:55:31;102344.38;;;2.43;50.34
22000;BME280;11164;48.818;2.322;2023-01-23T07:57:56;102356.34;;;2.63;50.35
22000;BME280;11164;48.818;2.322;2023-01-23T08:00:22;102355.13;;;2.94;49.40
22000;BME280;11164;48.818;2.322;2023-01-23T08:02:48;102352.44;;;2.94;49.09
22000;BME280;11164;48.818;2.322;2023-01-23T08:05:13;102346.19;;;3.21;48.55
22000;BME280;11164;48.818;2.322;2023-01-23T08:07:39;102347.56;;;3.26;48.81
22000;BME280;11164;48.818;2.322;2023-01-23T08:10:05;102329.94;;;3.24;48.80
22000;BME280;11164;48.818;2.322;2023-01-23T08:12:31;102333.25;;;3.40;47.89
22000;BME280;11164;48.818;2.322;2023-01-23T08:14:56;102356.94;;;3.32;48.36
22000;BME280;11164;48.818;2.322;2023-01-23T08:17:21;102349.44;;;2.73;50.15
22000;BME280;11164;48.818;2.322;2023-01-23T08:19:47;102354.03;;;2.71;50.53
22000;BME280;11164;48.818;2.322;2023-01-23T08:22:13;102346.06;;;2.96;49.35
22000;BME280;11164;48.818;2.322;2023-01-23T08:24:38;102353.09;;;3.23;49.04
22000;BME280;11164;48.818;2.322;2023-01-23T08:27:04;102359.28;;;3.11;49.06
22000;BME280;11164;48.818;2.322;2023-01-23T08:29:30;102354.13;;;2.69;49.59
22000;BME280;11164;48.818;2.322;2023-01-23T08:31:55;102347.00;;;2.83;50.02
22000;BME280;11164;48.818;2.322;2023-01-23T08:34:21;102363.59;;;2.73;49.99
22000;BME280;11164;48.818;2.322;2023-01-23T08:36:48;102350.53;;;2.96;49.65
22000;BME280;11164;48.818;2.322;2023-01-23T08:39:16;102354.38;;;3.18;49.26
22000;BME280;11164;48.818;2.322;2023-01-23T08:41:41;102349.34;;;3.39;49.03
22000;BME280;11164;48.818;2.322;2023-01-23T08:44:06;102338.91;;;2.84;49.62
22000;BME280;11164;48.818;2.322;2023-01-23T08:46:32;102355.59;;;2.60;50.36
22000;BME280;11164;48.818;2.322;2023-01-23T08:48:57;102357.56;;;2.97;49.56
22000;BME280;11164;48.818;2.322;2023-01-23T08:51:23;102343.94;;;3.14;48.51
22000;BME280;11164;48.818;2.322;2023-01-23T08:53:53;102349.91;;;3.18;48.87
22000;BME280;11164;48.818;2.322;2023-01-23T08:56:20;102351.94;;;3.02;49.63
22000;BME280;11164;48.818;2.322;2023-01-23T08:58:46;102350.97;;;3.03;49.47
22000;BME280;11164;48.818;2.322;2023-01-23T09:01:17;102338.50;;;3.03;49.92
22000;BME280;11164;48.818;2.322;2023-01-23T09:03:43;102334.66;;;3.07;49.44
22000;BME280;11164;48.818;2.322;2023-01-23T09:06:10;102339.88;;;3.09;50.09
22000;BME280;11164;48.818;2.322;2023-01-23T09:08:36;102337.84;;;3.25;48.98
22000;BME280;11164;48.818;2.322;2023-01-23T09:11:04;102334.22;;;3.01;49.69
22000;BME280;11164;48.818;2.322;2023-01-23T09:13:29;102338.50;;;3.42;49.18
22000;BME280;11164;48.818;2.322;2023-01-23T09:15:55;102345.88;;;3.75;48.19
22000;BME280;11164;48.818;2.322;2023-01-23T09:18:21;102341.75;;;3.58;48.77
22000;BME280;11164;48.818;2.322;2023-01-23T09:20:50;102354.72;;;3.76;48.56
22000;BME280;11164;48.818;2.322;2023-01-23T09:23:16;102343.84;;;3.79;48.60
22000;BME280;11164;48.818;2.322;2023-01-23T09:25:41;102349.44;;;3.63;49.17
22000;BME280;11164;48.818;2.322;2023-01-23T09:28:06;102342.94;;;3.41;48.80
22000;BME280;11164;48.818;2.322;2023-01-23T09:30:32;102329.19;;;3.47;48.94
22000;BME280;11164;48.818;2.322;2023-01-23T09:32:57;102366.97;;;3.91;48.13
22000;BME280;11164;48.818;2.322;2023-01-23T09:35:23;102360.22;;;3.98;48.37
22000;BME280;11164;48.818;2.322;2023-01-23T09:37:49;102378.63;;;3.77;48.92
22000;BME280;11164;48.818;2.322;2023-01-23T09:40:31;102380.41;;;3.89;48.32
22000;BME280;11164;48.818;2.322;2023-01-23T09:43:16;102389.19;;;4.16;47.59
22000;BME280;11164;48.818;2.322;2023-01-23T09:45:47;102378.38;;;3.93;47.84
22000;BME280;11164;48.818;2.322;2023-01-23T09:48:20;102395.09;;;3.58;49.01
22000;BME280;11164;48.818;2.322;2023-01-23T09:51:15;102393.16;;;3.60;47.86
22000;BME280;11164;48.818;2.322;2023-01-23T09:53:44;102399.69;;;3.56;48.99
22000;BME280;11164;48.818;2.322;2023-01-23T09:56:17;102396.81;;;3.59;49.22
22000;BME280;11164;48.818;2.322;2023-01-23T10:01:32;102405.78;;;3.58;49.29
22000;BME280;11164;48.818;2.322;2023-01-23T10:03:59;102406.16;;;3.78;48.68
22000;BME280;11164;48.818;2.322;2023-01-23T10:06:50;102405.34;;;3.64;48.36
22000;BME280;11164;48.818;2.322;2023-01-23T10:09:25;102413.13;;;3.29;49.47
22000;BME280;11164;48.818;2.322;2023-01-23T10:15:23;102403.94;;;3.71;48.31
22000;BME280;11164;48.818;2.322;2023-01-23T10:18:11;102412.34;;;3.91;48.11
22000;BME280;11164;48.818;2.322;2023-01-23T10:25:49;102419.59;;;3.89;48.38
22000;BME280;11164;48.818;2.322;2023-01-23T10:28:35;102413.78;;;3.58;48.49
22000;BME280;11164;48.818;2.322;2023-01-23T10:31:11;102417.53;;;3.56;48.46
22000;BME280;11164;48.818;2.322;2023-01-23T10:33:49;102420.72;;;3.22;49.31
22000;BME280;11164;48.818;2.322;2023-01-23T10:36:35;102414.94;;;3.28;49.20
22000;BME280;11164;48.818;2.322;2023-01-23T10:39:12;102422.19;;;3.39;49.00
22000;BME280;11164;48.818;2.322;2023-01-23T10:41:38;102409.94;;;3.37;49.69
22000;BME280;11164;48.818;2.322;2023-01-23T10:44:12;102417.72;;;3.52;49.09
22000;BME280;11164;48.818;2.322;2023-01-23T10:46:46;102411.84;;;3.60;48.78
22000;BME280;11164;48.818;2.322;2023-01-23T10:49:35;102406.19;;;3.65;48.40
22000;BME280;11164;48.818;2.322;2023-01-23T10:52:04;102400.34;;;3.72;48.50
22000;BME280;11164;48.818;2.322;2023-01-23T10:54:30;102390.22;;;3.26;49.39
22000;BME280;11164;48.818;2.322;2023-01-23T10:59:35;102396.81;;;3.46;49.60
22000;BME280;11164;48.818;2.322;2023-01-23T11:04:36;102396.38;;;3.27;49.76
22000;BME280;11164;48.818;2.322;2023-01-23T11:07:16;102391.88;;;3.79;48.82
22000;BME280;11164;48.818;2.322;2023-01-23T11:09:52;102390.78;;;3.94;48.14
22000;BME280;11164;48.818;2.322;2023-01-23T11:12:25;102394.38;;;4.06;48.46
22000;BME280;11164;48.818;2.322;2023-01-23T11:17:44;102376.09;;;4.13;48.16
22000;BME280;11164;48.818;2.322;2023-01-23T11:28:22;102380.78;;;4.33;46.96
22000;BME280;11164;48.818;2.322;2023-01-23T11:30:54;102384.75;;;4.40;47.58
22000;BME280;11164;48.818;2.322;2023-01-23T11:38:23;102365.66;;;3.97;48.40
22000;BME280;11164;48.818;2.322;2023-01-23T11:40:50;102367.06;;;3.89;49.01
22000;BME280;11164;48.818;2.322;2023-01-23T11:43:16;102364.75;;;3.85;48.58
22000;BME280;11164;48.818;2.322;2023-01-23T11:51:26;102354.75;;;4.13;47.93
22000;BME280;11164;48.818;2.322;2023-01-23T11:54:09;102333.06;;;3.80;47.64
22000;BME280;11164;48.818;2.322;2023-01-23T12:07:22;102321.06;;;3.99;47.46
22000;BME280;11164;48.818;2.322;2023-01-23T12:12:48;102306.28;;;4.06;47.89
22000;BME280;11164;48.818;2.322;2023-01-23T12:20:55;102298.53;;;4.14;47.31
22000;BME280;11164;48.818;2.322;2023-01-23T12:26:12;102304.41;;;3.95;47.43
22000;BME280;11164;48.818;2.322;2023-01-23T12:31:46;102280.84;;;4.13;47.51
22000;BME280;11164;48.818;2.322;2023-01-23T12:37:18;102284.94;;;4.06;47.20
22000;BME280;11164;48.818;2.322;2023-01-23T12:42:49;102287.13;;;4.12;46.37
22000;BME280;11164;48.818;2.322;2023-01-23T12:45:22;102284.72;;;3.85;47.92
22000;BME280;11164;48.818;2.322;2023-01-23T12:48:05;102279.00;;;3.65;46.94
22000;BME280;11164;48.818;2.322;2023-01-23T12:50:52;102273.66;;;3.65;47.68
22000;BME280;11164;48.818;2.322;2023-01-23T12:53:21;102278.78;;;3.92;47.73
22000;BME280;11164;48.818;2.322;2023-01-23T12:58:21;102273.63;;;4.26;47.33
22000;BME280;11164;48.818;2.322;2023-01-23T13:08:49;102284.66;;;3.98;45.95
22000;BME280;11164;48.818;2.322;2023-01-23T13:11:22;102284.34;;;3.89;48.45
22000;BME280;11164;48.818;2.322;2023-01-23T13:14:38;102276.56;;;4.10;47.15
22000;BME280;11164;48.818;2.322;2023-01-23T13:17:45;102278.44;;;4.45;45.98
22000;BME280;11164;48.818;2.322;2023-01-23T13:23:30;102281.28;;;4.66;45.18
22000;BME280;11164;48.818;2.322;2023-01-23T13:28:44;102268.38;;;4.25;47.06
22000;BME280;11164;48.818;2.322;2023-01-23T13:31:44;102272.06;;;4.35;45.94
22000;BME280;11164;48.818;2.322;2023-01-23T13:34:33;102276.66;;;4.33;46.23
22000;BME280;11164;48.818;2.322;2023-01-23T13:38:12;102273.84;;;4.47;46.44
22000;BME280;11164;48.818;2.322;2023-01-23T13:42:35;102273.88;;;4.35;47.54
22000;BME280;11164;48.818;2.322;2023-01-23T13:50:51;102272.94;;;4.11;47.53
22000;BME280;11164;48.818;2.322;2023-01-23T13:53:19;102260.44;;;3.88;48.38
22000;BME280;11164;48.818;2.322;2023-01-23T13:56:17;102271.88;;;3.90;48.12
22000;BME280;11164;48.818;2.322;2023-01-23T13:59:07;102266.88;;;4.09;47.08
22000;BME280;11164;48.818;2.322;2023-01-23T14:01:40;102266.03;;;4.09;47.25
22000;BME280;11164;48.818;2.322;2023-01-23T14:04:28;102270.72;;;4.05;47.44
22000;BME280;11164;48.818;2.322;2023-01-23T14:07:32;102266.00;;;3.61;47.32
22000;BME280;11164;48.818;2.322;2023-01-23T14:10:29;102273.97;;;3.73;47.56
22000;BME280;11164;48.818;2.322;2023-01-23T14:13:10;102280.63;;;3.92;45.94
22000;BME280;11164;48.818;2.322;2023-01-23T14:15:45;102270.38;;;3.86;46.71
22000;BME280;11164;48.818;2.322;2023-01-23T14:18:31;102277.84;;;4.18;47.23
22000;BME280;11164;48.818;2.322;2023-01-23T14:21:26;102271.13;;;3.88;47.13
22000;BME280;11164;48.818;2.322;2023-01-23T14:23:52;102278.72;;;4.05;47.12
22000;BME280;11164;48.818;2.322;2023-01-23T14:26:26;102249.13;;;3.60;47.64
22000;BME280;11164;48.818;2.322;2023-01-23T14:31:42;102275.78;;;3.97;47.03
22000;BME280;11164;48.818;2.322;2023-01-23T14:34:23;102292.03;;;3.94;46.93
22000;BME280;11164;48.818;2.322;2023-01-23T14:37:05;102289.06;;;4.10;46.23
22000;BME280;11164;48.818;2.322;2023-01-23T14:39:35;102292.53;;;4.23;46.67
22000;BME280;11164;48.818;2.322;2023-01-23T14:42:02;102294.47;;;3.97;47.02
22000;BME280;11164;48.818;2.322;2023-01-23T14:44:41;102293.75;;;3.95;46.44
22000;BME280;11164;48.818;2.322;2023-01-23T14:47:15;102302.63;;;3.83;46.66
22000;BME280;11164;48.818;2.322;2023-01-23T14:49:42;102293.16;;;3.79;47.37
22000;BME280;11164;48.818;2.322;2023-01-23T14:52:20;102288.13;;;4.11;46.24
22000;BME280;11164;48.818;2.322;2023-01-23T14:54:46;102289.50;;;4.28;45.89